sensor_id;sensor_type;location;lat;lon;timestamp;pressure;altitude;pressure_sealevel;temperature;humidity
22181;BME280;11256;50.830;12.834;2023-04-20T00:02:42;97793.78;;;7.41;65.08
22181;BME280;11256;50.830;12.834;2023-04-20T00:07:43;97788.34;;;7.36;65.31
22181;BME280;11256;50.830;12.834;2023-04-20T00:12:43;97786.72;;;7.35;65.36
22181;BME280;11256;50.830;12.834;2023-04-20T00:17:43;97774.78;;;7.26;65.42
22181;BME280;11256;50.830;12.834;2023-04-20T00:22:45;97783.47;;;7.33;65.55
22181;BME280;11256;50.830;12.834;2023-04-20T00:27:45;97776.97;;;7.29;65.49
22181;BME280;11256;50.830;12.834;2023-04-20T00:32:46;97765.09;;;7.25;65.27
22181;BME280;11256;50.830;12.834;2023-04-20T00:37:47;97768.28;;;7.22;65.71
22181;BME280;11256;50.830;12.834;2023-04-20T00:42:47;97773.44;;;7.23;65.92
22181;BME280;11256;50.830;12.834;2023-04-20T00:47:49;97784.19;;;7.23;65.77
22181;BME280;11256;50.830;12.834;2023-04-20T00:52:50;97775.81;;;7.20;65.96
22181;BME280;11256;50.830;12.834;2023-04-20T00:57:51;97760.94;;;7.12;65.94
22181;BME280;11256;50.830;12.834;2023-04-20T01:02:52;97765.03;;;7.20;65.85
22181;BME280;11256;50.830;12.834;2023-04-20T01:07:52;97763.69;;;7.17;66.12
22181;BME280;11256;50.830;12.834;2023-04-20T01:12:54;97744.97;;;7.06;66.24
22181;BME280;11256;50.830;12.834;2023-04-20T01:17:54;97742.81;;;7.08;66.02
22181;BME280;11256;50.830;12.834;2023-04-20T01:22:56;97759.31;;;7.11;66.07
22181;BME280;11256;50.830;12.834;2023-04-20T01:27:57;97752.56;;;7.09;66.74
22181;BME280;11256;50.830;12.834;2023-04-20T01:32:57;97747.63;;;7.01;66.30
22181;BME280;11256;50.830;12.834;2023-04-20T01:37:57;97763.00;;;7.00;67.14
22181;BME280;11256;50.830;12.834;2023-04-20T01:42:58;97754.59;;;6.97;66.03
22181;BME280;11256;50.830;12.834;2023-04-20T01:47:59;97742.72;;;6.93;68.18
22181;BME280;11256;50.830;12.834;2023-04-20T01:53:00;97745.59;;;6.86;67.44
22181;BME280;11256;50.830;12.834;2023-04-20T01:58:00;97725.81;;;6.71;67.74
22181;BME280;11256;50.830;12.834;2023-04-20T02:03:00;97730.91;;;6.67;67.51
22181;BME280;11256;50.830;12.834;2023-04-20T02:08:01;97746.28;;;6.72;69.05
22181;BME280;11256;50.830;12.834;2023-04-20T02:13:01;97711.59;;;6.49;70.28
22181;BME280;11256;50.830;12.834;2023-04-20T02:18:02;97742.31;;;6.53;70.60
22181;BME280;11256;50.830;12.834;2023-04-20T02:23:02;97744.78;;;6.33;71.50
22181;BME280;11256;50.830;12.834;2023-04-20T02:28:03;97735.53;;;6.24;69.93
22181;BME280;11256;50.830;12.834;2023-04-20T02:33:04;97710.03;;;6.05;69.48
22181;BME280;11256;50.830;12.834;2023-04-20T02:38:04;97747.06;;;6.19;68.87
22181;BME280;11256;50.830;12.834;2023-04-20T02:43:04;97729.59;;;6.22;69.46
22181;BME280;11256;50.830;12.834;2023-04-20T02:48:06;97730.31;;;6.17;68.81
22181;BME280;11256;50.830;12.834;2023-04-20T02:53:07;97737.03;;;6.15;69.03
22181;BME280;11256;50.830;12.834;2023-04-20T02:58:10;97740.06;;;6.18;69.81
22181;BME280;11256;50.830;12.834;2023-04-20T03:03:30;97744.84;;;6.16;69.67
22181;BME280;11256;50.830;12.834;2023-04-20T03:08:31;97748.59;;;6.15;69.15
22181;BME280;11256;50.830;12.834;2023-04-20T03:13:37;97749.91;;;6.13;69.21
22181;BME280;11256;50.830;12.834;2023-04-20T03:18:38;97739.66;;;6.10;68.65
22181;BME280;11256;50.830;12.834;2023-04-20T03:23:40;97746.09;;;6.09;69.07
22181;BME280;11256;50.830;12.834;2023-04-20T03:28:42;97729.28;;;5.97;68.88
22181;BME280;11256;50.830;12.834;2023-04-20T03:33:45;97737.41;;;6.02;69.26
22181;BME280;11256;50.830;12.834;2023-04-20T03:38:46;97736.84;;;6.00;69.15
22181;BME280;11256;50.830;12.834;2023-04-20T03:43:46;97738.41;;;5.96;69.25
22181;BME280;11256;50.830;12.834;2023-04-20T03:48:46;97733.53;;;5.93;69.27
22181;BME280;11256;50.830;12.834;2023-04-20T03:53:47;97729.66;;;5.84;69.45
22181;BME280;11256;50.830;12.834;2023-04-20T03:58:47;97737.63;;;5.79;69.26
22181;BME280;11256;50.830;12.834;2023-04-20T04:03:55;97728.88;;;5.67;69.08
22181;BME280;11256;50.830;12.834;2023-04-20T04:08:55;97725.09;;;5.68;69.52
22181;BME280;11256;50.830;12.834;2023-04-20T04:13:58;97738.53;;;5.68;69.27
22181;BME280;11256;50.830;12.834;2023-04-20T04:18:59;97726.59;;;5.59;69.73
22181;BME280;11256;50.830;12.834;2023-04-20T04:24:00;97737.34;;;5.59;69.05
22181;BME280;11256;50.830;12.834;2023-04-20T04:29:21;97743.69;;;5.53;68.74
22181;BME280;11256;50.830;12.834;2023-04-20T04:34:21;97725.19;;;5.35;69.29
22181;BME280;11256;50.830;12.834;2023-04-20T04:39:26;97735.88;;;5.51;69.15
22181;BME280;11256;50.830;12.834;2023-04-20T04:44:35;97736.84;;;5.62;69.19
22181;BME280;11256;50.830;12.834;2023-04-20T04:49:38;97748.38;;;5.79;70.00
22181;BME280;11256;50.830;12.834;2023-04-20T04:54:39;97737.72;;;6.05;69.64
22181;BME280;11256;50.830;12.834;2023-04-20T04:59:40;97745.94;;;6.42;70.45
22181;BME280;11256;50.830;12.834;2023-04-20T05:04:41;97753.94;;;6.85;71.14
22181;BME280;11256;50.830;12.834;2023-04-20T05:09:41;97760.78;;;7.29;71.80
22181;BME280;11256;50.830;12.834;2023-04-20T05:14:42;97781.06;;;7.73;71.73
22181;BME280;11256;50.830;12.834;2023-04-20T05:19:42;97776.47;;;8.15;72.57
22181;BME280;11256;50.830;12.834;2023-04-20T05:24:42;97770.69;;;8.48;72.22
22181;BME280;11256;50.830;12.834;2023-04-20T05:29:43;97789.41;;;8.69;70.32
22181;BME280;11256;50.830;12.834;2023-04-20T05:34:43;97787.81;;;8.83;69.18
22181;BME280;11256;50.830;12.834;2023-04-20T05:39:43;97796.78;;;8.94;68.75
22181;BME280;11256;50.830;12.834;2023-04-20T05:44:44;97795.13;;;8.98;69.26
22181;BME280;11256;50.830;12.834;2023-04-20T05:49:44;97794.66;;;9.16;69.19
22181;BME280;11256;50.830;12.834;2023-04-20T05:54:45;97813.59;;;9.51;69.24
22181;BME280;11256;50.830;12.834;2023-04-20T05:59:45;97808.44;;;9.89;68.56
22181;BME280;11256;50.830;12.834;2023-04-20T06:04:45;97802.09;;;10.44;68.44
22181;BME280;11256;50.830;12.834;2023-04-20T06:09:46;97804.59;;;10.89;67.31
22181;BME280;11256;50.830;12.834;2023-04-20T06:14:46;97816.59;;;11.65;66.34
22181;BME280;11256;50.830;12.834;2023-04-20T06:19:46;97817.06;;;12.29;63.26
22181;BME280;11256;50.830;12.834;2023-04-20T06:24:47;97803.91;;;12.41;61.54
22181;BME280;11256;50.830;12.834;2023-04-20T06:29:47;97817.53;;;12.59;59.61
22181;BME280;11256;50.830;12.834;2023-04-20T06:34:47;97813.88;;;12.69;57.94
22181;BME280;11256;50.830;12.834;2023-04-20T06:39:53;97811.81;;;12.61;55.63
22181;BME280;11256;50.830;12.834;2023-04-20T06:44:54;97813.81;;;12.55;53.90
22181;BME280;11256;50.830;12.834;2023-04-20T06:49:59;97808.13;;;12.94;57.48
22181;BME280;11256;50.830;12.834;2023-04-20T06:55:00;97803.22;;;13.70;60.58
22181;BME280;11256;50.830;12.834;2023-04-20T07:00:01;97804.53;;;14.63;57.25
22181;BME280;11256;50.830;12.834;2023-04-20T07:05:01;97798.84;;;15.49;54.63
22181;BME280;11256;50.830;12.834;2023-04-20T07:10:01;97811.94;;;16.05;52.32
22181;BME280;11256;50.830;12.834;2023-04-20T07:15:02;97816.00;;;16.38;50.40
22181;BME280;11256;50.830;12.834;2023-04-20T07:20:04;97817.59;;;16.61;50.48
22181;BME280;11256;50.830;12.834;2023-04-20T07:25:07;97824.94;;;16.91;49.92
22181;BME280;11256;50.830;12.834;2023-04-20T07:30:09;97826.19;;;17.32;46.30
22181;BME280;11256;50.830;12.834;2023-04-20T07:35:10;97816.22;;;17.79;45.69
22181;BME280;11256;50.830;12.834;2023-04-20T07:40:10;97804.94;;;18.69;47.98
22181;BME280;11256;50.830;12.834;2023-04-20T07:45:12;97796.91;;;19.22;47.98
22181;BME280;11256;50.830;12.834;2023-04-20T07:50:12;97804.31;;;19.50;40.59
22181;BME280;11256;50.830;12.834;2023-04-20T07:55:12;97812.88;;;19.49;43.49
22181;BME280;11256;50.830;12.834;2023-04-20T08:00:13;97805.91;;;19.31;42.05
22181;BME280;11256;50.830;12.834;2023-04-20T08:05:14;97821.47;;;18.52;42.63
22181;BME280;11256;50.830;12.834;2023-04-20T08:10:14;97816.09;;;17.50;42.98
22181;BME280;11256;50.830;12.834;2023-04-20T08:15:15;97811.25;;;16.82;44.39
22181;BME280;11256;50.830;12.834;2023-04-20T08:20:15;97809.53;;;16.34;45.22
22181;BME280;11256;50.830;12.834;2023-04-20T08:25:16;97801.44;;;15.98;44.71
22181;BME280;11256;50.830;12.834;2023-04-20T08:30:16;97802.84;;;16.70;46.83
22181;BME280;11256;50.830;12.834;2023-04-20T08:35:16;97803.41;;;17.15;43.42
22181;BME280;11256;50.830;12.834;2023-04-20T08:40:17;97803.66;;;17.61;42.20
22181;BME280;11256;50.830;12.834;2023-04-20T08:45:20;97801.03;;;18.07;43.30
22181;BME280;11256;50.830;12.834;2023-04-20T08:50:20;97785.44;;;17.82;42.18
22181;BME280;11256;50.830;12.834;2023-04-20T08:55:22;97803.53;;;18.92;44.56
22181;BME280;11256;50.830;12.834;2023-04-20T09:00:22;97800.91;;;18.66;43.48
22181;BME280;11256;50.830;12.834;2023-04-20T09:05:27;97814.16;;;16.86;42.20
22181;BME280;11256;50.830;12.834;2023-04-20T09:10:39;97810.94;;;16.45;44.16
22181;BME280;11256;50.830;12.834;2023-04-20T09:15:40;97814.44;;;15.93;43.05
22181;BME280;11256;50.830;12.834;2023-04-20T09:20:40;97826.94;;;14.47;44.12
22181;BME280;11256;50.830;12.834;2023-04-20T09:25:41;97830.03;;;14.27;44.54
22181;BME280;11256;50.830;12.834;2023-04-20T09:30:47;97823.63;;;13.35;45.18
22181;BME280;11256;50.830;12.834;2023-04-20T09:35:49;97820.38;;;12.73;46.27
22181;BME280;11256;50.830;12.834;2023-04-20T09:40:50;97807.31;;;12.28;46.34
22181;BME280;11256;50.830;12.834;2023-04-20T09:45:50;97801.75;;;12.14;47.67
22181;BME280;11256;50.830;12.834;2023-04-20T09:50:51;97819.06;;;11.95;47.82
22181;BME280;11256;50.830;12.834;2023-04-20T09:55:51;97809.50;;;11.69;48.33
22181;BME280;11256;50.830;12.834;2023-04-20T10:00:52;97796.59;;;11.51;48.76
22181;BME280;11256;50.830;12.834;2023-04-20T10:05:52;97785.41;;;11.24;49.42
22181;BME280;11256;50.830;12.834;2023-04-20T10:10:54;97786.84;;;11.11;50.12
22181;BME280;11256;50.830;12.834;2023-04-20T10:15:55;97787.53;;;10.88;51.01
22181;BME280;11256;50.830;12.834;2023-04-20T10:21:04;97791.59;;;10.91;52.01
22181;BME280;11256;50.830;12.834;2023-04-20T10:26:06;97781.13;;;10.64;51.72
22181;BME280;11256;50.830;12.834;2023-04-20T10:31:07;97768.56;;;10.35;52.76
22181;BME280;11256;50.830;12.834;2023-04-20T10:36:08;97775.84;;;10.39;52.79
22181;BME280;11256;50.830;12.834;2023-04-20T10:41:09;97755.34;;;10.03;53.81
22181;BME280;11256;50.830;12.834;2023-04-20T10:46:16;97769.72;;;10.14;54.48
22181;BME280;11256;50.830;12.834;2023-04-20T10:51:17;97761.84;;;10.02;56.63
22181;BME280;11256;50.830;12.834;2023-04-20T10:56:18;97770.53;;;10.04;57.08
22181;BME280;11256;50.830;12.834;2023-04-20T11:01:18;97773.25;;;9.79;57.63
22181;BME280;11256;50.830;12.834;2023-04-20T11:06:19;97764.31;;;9.84;58.21
22181;BME280;11256;50.830;12.834;2023-04-20T11:11:23;97749.69;;;9.90;58.65
22181;BME280;11256;50.830;12.834;2023-04-20T11:16:24;97763.19;;;10.00;58.63
22181;BME280;11256;50.830;12.834;2023-04-20T11:21:35;97754.00;;;10.11;59.18
22181;BME280;11256;50.830;12.834;2023-04-20T11:26:36;97751.28;;;10.16;58.44
22181;BME280;11256;50.830;12.834;2023-04-20T11:31:37;97756.72;;;10.06;58.94
22181;BME280;11256;50.830;12.834;2023-04-20T11:36:37;97764.31;;;9.94;59.22
22181;BME280;11256;50.830;12.834;2023-04-20T11:41:38;97760.00;;;9.88;60.50
22181;BME280;11256;50.830;12.834;2023-04-20T11:46:38;97750.00;;;9.73;60.35
22181;BME280;11256;50.830;12.834;2023-04-20T11:51:39;97744.31;;;9.75;60.81
22181;BME280;11256;50.830;12.834;2023-04-20T11:56:40;97752.41;;;9.80;60.35
22181;BME280;11256;50.830;12.834;2023-04-20T12:01:44;97735.50;;;10.33;63.36
22181;BME280;11256;50.830;12.834;2023-04-20T12:06:44;97728.44;;;10.37;62.82
22181;BME280;11256;50.830;12.834;2023-04-20T12:11:45;97759.19;;;10.61;61.71
22181;BME280;11256;50.830;12.834;2023-04-20T12:16:45;97754.50;;;10.81;60.59
22181;BME280;11256;50.830;12.834;2023-04-20T12:21:45;97744.03;;;10.60;60.23
22181;BME280;11256;50.830;12.834;2023-04-20T12:26:47;97734.28;;;10.64;60.29
22181;BME280;11256;50.830;12.834;2023-04-20T12:31:47;97734.25;;;10.69;61.11
22181;BME280;11256;50.830;12.834;2023-04-20T12:36:47;97721.22;;;10.71;60.97
22181;BME280;11256;50.830;12.834;2023-04-20T12:41:48;97700.00;;;10.83;61.49
22181;BME280;11256;50.830;12.834;2023-04-20T12:46:48;97713.47;;;10.93;61.95
22181;BME280;11256;50.830;12.834;2023-04-20T12:51:48;97713.09;;;10.71;61.93
22181;BME280;11256;50.830;12.834;2023-04-20T12:56:49;97722.31;;;10.70;62.34
22181;BME280;11256;50.830;12.834;2023-04-20T13:01:49;97706.13;;;10.55;62.91
22181;BME280;11256;50.830;12.834;2023-04-20T13:06:50;97705.59;;;10.58;63.12
22181;BME280;11256;50.830;12.834;2023-04-20T13:11:50;97684.75;;;10.48;63.44
22181;BME280;11256;50.830;12.834;2023-04-20T13:16:51;97690.81;;;10.30;63.62
22181;BME280;11256;50.830;12.834;2023-04-20T13:21:51;97701.59;;;10.45;64.09
22181;BME280;11256;50.830;12.834;2023-04-20T13:26:53;97710.03;;;10.34;64.50
22181;BME280;11256;50.830;12.834;2023-04-20T13:31:57;97718.53;;;9.97;65.58
22181;BME280;11256;50.830;12.834;2023-04-20T13:36:57;97707.91;;;10.26;64.70
22181;BME280;11256;50.830;12.834;2023-04-20T13:41:58;97713.69;;;9.99;65.70
22181;BME280;11256;50.830;12.834;2023-04-20T13:46:58;97700.41;;;9.98;65.46
22181;BME280;11256;50.830;12.834;2023-04-20T13:51:58;97701.78;;;9.95;66.88
22181;BME280;11256;50.830;12.834;2023-04-20T13:56:59;97707.50;;;9.79;65.97
22181;BME280;11256;50.830;12.834;2023-04-20T14:02:00;97706.16;;;9.76;66.53
22181;BME280;11256;50.830;12.834;2023-04-20T14:07:00;97705.88;;;9.78;67.83
22181;BME280;11256;50.830;12.834;2023-04-20T14:12:01;97701.06;;;9.65;66.97
22181;BME280;11256;50.830;12.834;2023-04-20T14:17:02;97698.34;;;9.60;68.05
22181;BME280;11256;50.830;12.834;2023-04-20T14:22:02;97705.38;;;9.61;67.99
22181;BME280;11256;50.830;12.834;2023-04-20T14:27:03;97688.06;;;9.57;67.48
22181;BME280;11256;50.830;12.834;2023-04-20T14:32:03;97697.28;;;9.56;68.81
22181;BME280;11256;50.830;12.834;2023-04-20T14:37:04;97699.41;;;9.64;67.90
22181;BME280;11256;50.830;12.834;2023-04-20T14:42:04;97696.19;;;9.62;68.39
22181;BME280;11256;50.830;12.834;2023-04-20T14:47:04;97685.63;;;9.55;68.78
22181;BME280;11256;50.830;12.834;2023-04-20T14:52:05;97698.88;;;9.62;69.33
22181;BME280;11256;50.830;12.834;2023-04-20T14:57:06;97694.56;;;9.61;68.65
22181;BME280;11256;50.830;12.834;2023-04-20T15:02:06;97683.75;;;9.51;69.57
22181;BME280;11256;50.830;12.834;2023-04-20T15:07:06;97699.97;;;9.61;69.97
22181;BME280;11256;50.830;12.834;2023-04-20T15:12:07;97682.13;;;9.50;70.72
22181;BME280;11256;50.830;12.834;2023-04-20T15:17:07;97655.09;;;9.40;70.28
22181;BME280;11256;50.830;12.834;2023-04-20T15:22:07;97684.84;;;9.45;71.57
22181;BME280;11256;50.830;12.834;2023-04-20T15:27:08;97666.19;;;9.43;71.32
22181;BME280;11256;50.830;12.834;2023-04-20T15:32:08;97656.72;;;9.41;71.84
22181;BME280;11256;50.830;12.834;2023-04-20T15:37:08;97664.81;;;9.51;71.76
22181;BME280;11256;50.830;12.834;2023-04-20T15:42:09;97667.50;;;9.56;71.83
22181;BME280;11256;50.830;12.834;2023-04-20T15:47:10;97673.44;;;9.58;72.92
22181;BME280;11256;50.830;12.834;2023-04-20T15:52:10;97656.97;;;9.54;72.22
22181;BME280;11256;50.830;12.834;2023-04-20T15:57:10;97669.13;;;9.52;72.73
22181;BME280;11256;50.830;12.834;2023-04-20T16:02:11;97666.97;;;9.59;72.28
22181;BME280;11256;50.830;12.834;2023-04-20T16:07:12;97669.94;;;9.62;72.13
22181;BME280;11256;50.830;12.834;2023-04-20T16:12:12;97668.59;;;9.65;72.70
22181;BME280;11256;50.830;12.834;2023-04-20T16:17:13;97660.47;;;9.70;71.53
22181;BME280;11256;50.830;12.834;2023-04-20T16:22:13;97652.88;;;9.67;72.45
22181;BME280;11256;50.830;12.834;2023-04-20T16:27:13;97649.06;;;9.73;72.71
22181;BME280;11256;50.830;12.834;2023-04-20T16:32:14;97634.47;;;9.64;72.23
22181;BME280;11256;50.830;12.834;2023-04-20T16:37:14;97637.72;;;9.76;71.96
22181;BME280;11256;50.830;12.834;2023-04-20T16:42:14;97630.69;;;9.75;72.93
22181;BME280;11256;50.830;12.834;2023-04-20T16:47:15;97641.50;;;9.75;72.83
22181;BME280;11256;50.830;12.834;2023-04-20T16:52:15;97625.81;;;9.72;72.96
22181;BME280;11256;50.830;12.834;2023-04-20T16:57:16;97637.72;;;9.76;72.87
22181;BME280;11256;50.830;12.834;2023-04-20T17:02:16;97629.59;;;9.71;74.17
22181;BME280;11256;50.830;12.834;2023-04-20T17:07:16;97618.78;;;9.66;74.86
22181;BME280;11256;50.830;12.834;2023-04-20T17:12:17;97623.13;;;9.67;74.96
22181;BME280;11256;50.830;12.834;2023-04-20T17:17:17;97622.03;;;9.63;75.28
22181;BME280;11256;50.830;12.834;2023-04-20T17:22:17;97618.56;;;9.57;75.89
22181;BME280;11256;50.830;12.834;2023-04-20T17:27:19;97616.09;;;9.61;73.76
22181;BME280;11256;50.830;12.834;2023-04-20T17:32:20;97605.31;;;9.56;74.82
22181;BME280;11256;50.830;12.834;2023-04-20T17:37:21;97616.13;;;9.56;75.01
22181;BME280;11256;50.830;12.834;2023-04-20T17:42:22;97619.91;;;9.55;75.12
22181;BME280;11256;50.830;12.834;2023-04-20T17:47:22;97597.78;;;9.38;75.94
22181;BME280;11256;50.830;12.834;2023-04-20T17:52:22;97612.09;;;9.43;76.28
22181;BME280;11256;50.830;12.834;2023-04-20T17:57:24;97598.34;;;9.30;75.67
22181;BME280;11256;50.830;12.834;2023-04-20T18:02:25;97630.78;;;9.35;77.67
22181;BME280;11256;50.830;12.834;2023-04-20T18:07:26;97625.94;;;9.32;75.88
22181;BME280;11256;50.830;12.834;2023-04-20T18:12:27;97629.44;;;9.32;75.29
22181;BME280;11256;50.830;12.834;2023-04-20T18:17:27;97631.88;;;9.29;75.19
22181;BME280;11256;50.830;12.834;2023-04-20T18:22:27;97633.22;;;9.26;74.05
22181;BME280;11256;50.830;12.834;2023-04-20T18:27:28;97627.81;;;9.31;75.46
22181;BME280;11256;50.830;12.834;2023-04-20T18:32:28;97631.88;;;9.29;74.18
22181;BME280;11256;50.830;12.834;2023-04-20T18:37:30;97646.75;;;9.26;75.14
22181;BME280;11256;50.830;12.834;2023-04-20T18:42:30;97650.81;;;9.24;74.50
22181;BME280;11256;50.830;12.834;2023-04-20T18:47:31;97655.69;;;9.27;75.72
22181;BME280;11256;50.830;12.834;2023-04-20T18:52:32;97640.56;;;9.16;74.39
22181;BME280;11256;50.830;12.834;2023-04-20T18:57:32;97648.09;;;9.19;73.58
22181;BME280;11256;50.830;12.834;2023-04-20T19:02:33;97653.50;;;9.19;73.01
22181;BME280;11256;50.830;12.834;2023-04-20T19:07:34;97650.28;;;9.17;72.50
22181;BME280;11256;50.830;12.834;2023-04-20T19:12:35;97646.22;;;9.14;72.58
22181;BME280;11256;50.830;12.834;2023-04-20T19:17:37;97642.19;;;9.12;72.13
22181;BME280;11256;50.830;12.834;2023-04-20T19:22:37;97633.53;;;9.10;72.19
22181;BME280;11256;50.830;12.834;2023-04-20T19:27:38;97656.47;;;9.17;71.99
22181;BME280;11256;50.830;12.834;2023-04-20T19:32:38;97652.72;;;9.18;71.82
22181;BME280;11256;50.830;12.834;2023-04-20T19:37:38;97652.44;;;9.15;71.58
22181;BME280;11256;50.830;12.834;2023-04-20T19:42:40;97647.03;;;9.15;71.35
22181;BME280;11256;50.830;12.834;2023-04-20T19:47:41;97650.81;;;9.14;71.06
22181;BME280;11256;50.830;12.834;2023-04-20T19:52:41;97636.78;;;9.12;70.98
22181;BME280;11256;50.830;12.834;2023-04-20T19:57:42;97630.28;;;9.08;70.88
22181;BME280;11256;50.830;12.834;2023-04-20T20:02:42;97637.84;;;9.06;70.67
22181;BME280;11256;50.830;12.834;2023-04-20T20:07:43;97632.97;;;9.03;70.76
22181;BME280;11256;50.830;12.834;2023-04-20T20:12:43;97640.00;;;9.04;70.48
22181;BME280;11256;50.830;12.834;2023-04-20T20:17:43;97620.81;;;8.95;70.49
22181;BME280;11256;50.830;12.834;2023-04-20T20:22:46;97635.97;;;9.01;70.48
22181;BME280;11256;50.830;12.834;2023-04-20T20:27:48;97628.41;;;9.03;74.58
22181;BME280;11256;50.830;12.834;2023-04-20T20:32:49;97624.34;;;8.91;74.04
22181;BME280;11256;50.830;12.834;2023-04-20T20:37:50;97609.75;;;8.82;72.10
22181;BME280;11256;50.830;12.834;2023-04-20T20:42:50;97632.97;;;8.93;72.13
22181;BME280;11256;50.830;12.834;2023-04-20T20:47:51;97635.16;;;8.91;71.33
22181;BME280;11256;50.830;12.834;2023-04-20T20:52:51;97637.59;;;8.92;70.88
22181;BME280;11256;50.830;12.834;2023-04-20T20:57:51;97630.31;;;8.88;71.64
22181;BME280;11256;50.830;12.834;2023-04-20T21:02:52;97631.38;;;8.87;72.26
22181;BME280;11256;50.830;12.834;2023-04-20T21:07:52;97635.16;;;8.86;71.72
22181;BME280;11256;50.830;12.834;2023-04-20T21:12:53;97627.34;;;8.74;71.40
22181;BME280;11256;50.830;12.834;2023-04-20T21:17:53;97638.94;;;8.80;71.02
22181;BME280;11256;50.830;12.834;2023-04-20T21:22:53;97615.72;;;8.69;71.06
22181;BME280;11256;50.830;12.834;2023-04-20T21:27:54;97627.03;;;8.71;71.11
22181;BME280;11256;50.830;12.834;2023-04-20T21:32:54;97626.78;;;8.72;70.79
22181;BME280;11256;50.830;12.834;2023-04-20T21:37:55;97623.81;;;8.69;70.65
22181;BME280;11256;50.830;12.834;2023-04-20T21:42:55;97641.38;;;8.76;72.02
22181;BME280;11256;50.830;12.834;2023-04-20T21:47:55;97638.94;;;8.75;71.88
22181;BME280;11256;50.830;12.834;2023-04-20T21:52:56;97638.41;;;8.73;71.20
22181;BME280;11256;50.830;12.834;2023-04-20T21:57:56;97651.34;;;8.71;71.07
22181;BME280;11256;50.830;12.834;2023-04-20T22:02:56;97650.00;;;8.73;71.86
22181;BME280;11256;50.830;12.834;2023-04-20T22:07:57;97636.22;;;8.70;71.74
22181;BME280;11256;50.830;12.834;2023-04-20T22:12:57;97632.47;;;8.61;70.75
22181;BME280;11256;50.830;12.834;2023-04-20T22:17:57;97642.72;;;8.59;70.81
22181;BME280;11256;50.830;12.834;2023-04-20T22:22:59;97652.72;;;8.63;70.82
22181;BME280;11256;50.830;12.834;2023-04-20T22:27:59;97620.81;;;8.45;70.53
22181;BME280;11256;50.830;12.834;2023-04-20T22:33:00;97653.25;;;8.55;70.50
22181;BME280;11256;50.830;12.834;2023-04-20T22:38:00;97658.38;;;8.52;70.23
22181;BME280;11256;50.830;12.834;2023-04-20T22:43:01;97658.63;;;8.50;70.22
22181;BME280;11256;50.830;12.834;2023-04-20T22:48:01;97649.19;;;8.48;69.92
22181;BME280;11256;50.830;12.834;2023-04-20T22:53:01;97641.63;;;8.40;70.26
22181;BME280;11256;50.830;12.834;2023-04-20T22:58:02;97650.25;;;8.42;70.41
22181;BME280;11256;50.830;12.834;2023-04-20T23:03:03;97634.03;;;8.32;70.42
22181;BME280;11256;50.830;12.834;2023-04-20T23:08:03;97655.91;;;8.40;70.95
22181;BME280;11256;50.830;12.834;2023-04-20T23:13:03;97654.81;;;8.41;72.28
22181;BME280;11256;50.830;12.834;2023-04-20T23:18:04;97655.66;;;8.42;71.24
22181;BME280;11256;50.830;12.834;2023-04-20T23:23:04;97657.25;;;8.43;71.69
22181;BME280;11256;50.830;12.834;2023-04-20T23:28:06;97646.72;;;8.41;71.61
22181;BME280;11256;50.830;12.834;2023-04-20T23:33:06;97650.78;;;8.44;71.53
22181;BME280;11256;50.830;12.834;2023-04-20T23:38:07;97632.94;;;8.33;70.90
22181;BME280;11256;50.830;12.834;2023-04-20T23:43:07;97647.03;;;8.45;70.39
22181;BME280;11256;50.830;12.834;2023-04-20T23:48:07;97646.47;;;8.43;71.03
22181;BME280;11256;50.830;12.834;2023-04-20T23:53:08;97652.44;;;8.45;70.78
22181;BME280;11256;50.830;12.834;2023-04-20T23:58:09;97651.88;;;8.48;70.02
